Time;durP1;ratioP1;P1;durP2;ratioP2;P2;SDS_P1;SDS_P2;PMS_P1;PMS_P2;Temp;Humidity;BMP_temperature;BMP_pressure;BME280_temperature;BME280_humidity;BME280_pressure;Samples;Min_cycle;Max_cycle;Signal;HPM_P1;HPM_P2
2022/07/15 00:01:44;;;;;;;17.15;15.35;;;16.90;99.90;;;;;;5051949;28;20025;-71
2022/07/15 00:04:10;;;;;;;16.58;14.82;;;16.90;99.90;;;;;;5050640;28;20384;-72
2022/07/15 00:06:36;;;;;;;17.60;15.88;;;16.90;99.90;;;;;;5052024;28;20053;-76
2022/07/15 00:09:02;;;;;;;16.73;15.02;;;16.90;99.90;;;;;;5050725;28;20021;-76
2022/07/15 00:11:28;;;;;;;16.67;14.68;;;16.90;99.90;;;;;;5051955;28;20025;-76
2022/07/15 00:13:55;;;;;;;18.52;16.65;;;16.80;99.90;;;;;;5051978;28;20029;-71
2022/07/15 00:16:21;;;;;;;18.60;16.70;;;16.80;99.90;;;;;;5051708;28;20021;-71
2022/07/15 00:18:46;;;;;;;19.98;17.05;;;16.90;99.90;;;;;;5050386;28;20029;-76
2022/07/15 00:21:12;;;;;;;18.20;16.00;;;16.90;99.90;;;;;;5045783;27;20040;-71
2022/07/15 00:23:38;;;;;;;21.55;19.02;;;16.80;99.90;;;;;;5050241;28;20021;-77
2022/07/15 00:26:04;;;;;;;20.67;18.45;;;16.90;99.90;;;;;;5051473;28;20108;-76
2022/07/15 00:28:30;;;;;;;23.48;20.95;;;16.80;99.90;;;;;;5051404;28;20080;-77
2022/07/15 00:30:56;;;;;;;25.48;22.88;;;16.80;99.90;;;;;;5050194;28;20032;-76
2022/07/15 00:33:22;;;;;;;26.13;22.52;;;16.80;99.90;;;;;;5050559;28;20415;-71
2022/07/15 00:35:48;;;;;;;28.88;25.90;;;16.80;99.90;;;;;;5051331;28;20040;-71
2022/07/15 00:38:14;;;;;;;27.55;24.33;;;16.90;99.90;;;;;;5051218;28;20039;-72
2022/07/15 00:40:40;;;;;;;27.00;21.98;;;16.80;99.90;;;;;;5050137;28;20096;-76
2022/07/15 00:43:06;;;;;;;27.90;23.00;;;16.80;99.90;;;;;;5049826;28;20067;-76
2022/07/15 00:45:32;;;;;;;25.25;22.70;;;16.80;99.90;;;;;;5051149;28;20435;-72
2022/07/15 00:47:58;;;;;;;26.20;23.40;;;16.80;99.90;;;;;;5051166;28;20068;-76
2022/07/15 00:50:27;;;;;;;23.63;21.13;;;16.80;99.90;;;;;;5051200;28;20030;-74
2022/07/15 00:53:02;;;;;;;23.73;21.33;;;16.70;99.90;;;;;;5049947;28;20032;-77
2022/07/15 00:55:31;;;;;;;24.00;21.60;;;16.70;99.90;;;;;;5049849;28;20128;-71
2022/07/15 00:58:02;;;;;;;23.67;21.00;;;16.70;99.90;;;;;;5049735;28;20075;-77
2022/07/15 01:00:28;;;;;;;23.05;20.42;;;16.70;99.90;;;;;;5051110;28;20021;-71
2022/07/15 01:02:55;;;;;;;23.20;20.58;;;16.80;99.90;;;;;;5050820;28;20021;-77
2022/07/15 01:05:21;;;;;;;21.33;19.20;;;16.70;99.90;;;;;;5139815;27;20019;-76
2022/07/15 01:07:51;;;;;;;20.92;18.60;;;16.70;99.90;;;;;;5155380;27;20051;-71
2022/07/15 01:10:18;;;;;;;21.13;18.50;;;16.70;99.90;;;;;;5155631;27;20097;-71
2022/07/15 01:12:47;;;;;;;21.92;19.55;;;16.60;99.90;;;;;;5155656;27;20019;-71
2022/07/15 01:15:12;;;;;;;22.55;20.20;;;16.60;99.90;;;;;;5155414;27;20034;-71
2022/07/15 01:17:38;;;;;;;22.25;19.88;;;16.50;99.90;;;;;;5155395;27;20034;-72
2022/07/15 01:20:05;;;;;;;21.63;19.02;;;16.60;99.90;;;;;;5154136;27;20025;-76
2022/07/15 01:22:31;;;;;;;24.58;20.48;;;16.60;99.90;;;;;;5154104;27;20026;-76
2022/07/15 01:24:58;;;;;;;24.23;20.75;;;16.50;99.90;;;;;;5141153;27;20023;-76
2022/07/15 01:27:25;;;;;;;22.05;19.73;;;16.60;99.90;;;;;;5133286;27;20034;-71
2022/07/15 01:29:51;;;;;;;27.08;21.73;;;16.60;99.90;;;;;;5134412;27;20031;-71
2022/07/15 01:32:17;;;;;;;23.48;20.98;;;16.60;99.90;;;;;;5134441;27;20030;-76
2022/07/15 01:34:42;;;;;;;24.73;21.08;;;16.50;99.90;;;;;;5134383;27;20532;-77
2022/07/15 01:37:08;;;;;;;24.17;20.80;;;16.50;99.90;;;;;;5134481;27;20079;-77
2022/07/15 01:39:34;;;;;;;24.42;21.25;;;16.50;99.90;;;;;;5134329;27;20429;-76
2022/07/15 01:42:00;;;;;;;23.63;19.85;;;16.40;99.90;;;;;;5134358;27;20076;-76
2022/07/15 01:44:25;;;;;;;22.48;18.75;;;16.50;99.90;;;;;;5133005;27;20027;-72
2022/07/15 01:46:51;;;;;;;24.13;17.92;;;16.40;99.90;;;;;;5134350;27;20098;-71
2022/07/15 01:49:25;;;;;;;21.88;18.77;;;16.40;99.90;;;;;;5133177;27;20506;-77
2022/07/15 01:51:54;;;;;;;23.10;19.10;;;16.40;99.90;;;;;;5134335;27;20050;-72
2022/07/15 01:54:21;;;;;;;31.88;19.90;;;16.40;99.90;;;;;;5133991;27;20023;-71
2022/07/15 01:56:48;;;;;;;30.58;19.38;;;16.40;99.90;;;;;;5134128;27;20062;-71
2022/07/15 01:59:14;;;;;;;26.02;19.88;;;16.40;99.90;;;;;;5132810;27;20045;-71
2022/07/15 02:01:40;;;;;;;21.95;18.58;;;16.40;99.90;;;;;;5133799;27;20023;-71
2022/07/15 02:04:05;;;;;;;26.60;19.58;;;16.40;99.90;;;;;;5141427;27;20019;-76
2022/07/15 02:06:31;;;;;;;22.88;18.83;;;16.30;99.90;;;;;;5154705;27;20526;-77
2022/07/15 02:08:57;;;;;;;23.55;19.08;;;16.30;99.90;;;;;;5154525;27;20498;-76
2022/07/15 02:11:23;;;;;;;23.45;19.75;;;16.30;99.90;;;;;;5154728;27;20563;-76
2022/07/15 02:13:48;;;;;;;23.98;21.00;;;16.20;99.90;;;;;;5154470;27;20033;-77
2022/07/15 02:16:14;;;;;;;23.27;20.77;;;16.20;99.90;;;;;;5153379;27;20114;-77
2022/07/15 02:18:40;;;;;;;26.58;22.13;;;16.10;99.90;;;;;;5153517;27;20102;-76
2022/07/15 02:21:05;;;;;;;25.70;21.90;;;16.10;99.90;;;;;;5154745;27;20476;-76
2022/07/15 02:23:31;;;;;;;29.15;22.13;;;16.10;99.90;;;;;;5150335;27;20026;-76
2022/07/15 02:25:57;;;;;;;25.30;21.95;;;16.00;99.90;;;;;;5049801;28;20029;-75
2022/07/15 02:28:23;;;;;;;26.08;23.33;;;16.00;99.90;;;;;;5050000;28;20069;-73
2022/07/15 02:30:48;;;;;;;28.95;23.05;;;16.00;99.90;;;;;;5049739;28;20569;-77
2022/07/15 02:33:14;;;;;;;30.35;23.77;;;16.00;99.90;;;;;;5049870;28;20020;-77
2022/07/15 02:35:42;;;;;;;25.98;22.52;;;15.90;99.90;;;;;;5049688;28;20108;-72
2022/07/15 02:38:07;;;;;;;28.33;24.00;;;15.90;99.90;;;;;;5049784;28;20492;-72
2022/07/15 02:40:33;;;;;;;28.00;22.80;;;16.00;99.90;;;;;;5049839;28;20056;-71
2022/07/15 02:43:01;;;;;;;26.95;19.50;;;15.90;99.90;;;;;;5049831;28;20088;-71
2022/07/15 02:45:29;;;;;;;23.33;20.77;;;15.80;99.90;;;;;;5049738;28;20055;-76
2022/07/15 02:47:55;;;;;;;22.25;19.52;;;15.80;99.90;;;;;;5049850;28;20472;-76
2022/07/15 02:50:21;;;;;;;21.17;18.98;;;15.80;99.90;;;;;;5049633;28;20094;-76
2022/07/15 02:52:47;;;;;;;21.63;18.83;;;15.70;99.90;;;;;;5049733;28;20040;-76
2022/07/15 02:55:14;;;;;;;21.88;17.92;;;15.70;99.90;;;;;;5049529;28;20021;-76
2022/07/15 02:57:40;;;;;;;23.50;18.65;;;15.60;99.90;;;;;;5049522;28;20043;-73
2022/07/15 03:00:11;;;;;;;25.38;18.75;;;15.60;99.90;;;;;;5049389;28;20100;-76
2022/07/15 03:02:37;;;;;;;25.45;20.75;;;15.60;99.90;;;;;;5048328;28;20041;-71
2022/07/15 03:05:04;;;;;;;21.83;19.30;;;15.50;99.90;;;;;;5128126;27;20396;-76
2022/07/15 03:07:30;;;;;;;24.50;20.33;;;15.50;99.90;;;;;;5153215;27;20369;-71
2022/07/15 03:09:57;;;;;;;23.98;20.02;;;15.50;99.90;;;;;;5154449;27;20021;-76
2022/07/15 03:12:23;;;;;;;24.55;21.90;;;15.50;99.90;;;;;;5153109;27;20452;-77
2022/07/15 03:14:49;;;;;;;25.63;20.00;;;15.40;99.90;;;;;;5154528;27;20050;-72
2022/07/15 03:17:15;;;;;;;21.75;19.45;;;15.50;99.90;;;;;;5154238;27;20119;-76
2022/07/15 03:19:41;;;;;;;26.00;20.92;;;15.50;99.90;;;;;;5153044;27;20058;-76
2022/07/15 03:22:07;;;;;;;21.38;18.52;;;15.50;99.90;;;;;;5157823;27;20050;-77
2022/07/15 03:24:33;;;;;;;24.00;20.13;;;15.50;99.90;;;;;;5107096;27;20025;-72
2022/07/15 03:26:59;;;;;;;25.33;19.73;;;15.60;99.90;;;;;;5052625;28;20103;-71
2022/07/15 03:29:26;;;;;;;21.02;18.15;;;15.70;99.90;;;;;;5052648;28;20536;-76
2022/07/15 03:31:52;;;;;;;21.40;19.10;;;15.80;99.90;;;;;;5051097;28;20021;-71
2022/07/15 03:34:18;;;;;;;25.95;18.83;;;15.90;99.90;;;;;;5052525;28;20025;-76
2022/07/15 03:36:44;;;;;;;22.95;17.15;;;16.00;99.90;;;;;;5052368;28;20116;-76
2022/07/15 03:39:10;;;;;;;19.55;16.80;;;16.20;99.90;;;;;;5051088;28;20060;-77
2022/07/15 03:41:36;;;;;;;19.60;17.15;;;16.30;99.90;;;;;;5052398;28;20025;-71
2022/07/15 03:44:02;;;;;;;28.23;16.98;;;16.50;99.90;;;;;;5052420;28;20109;-76
2022/07/15 03:46:29;;;;;;;20.65;16.65;;;16.50;99.90;;;;;;5050897;28;20504;-72
2022/07/15 03:48:56;;;;;;;22.40;17.98;;;16.30;99.90;;;;;;5052324;28;20521;-76
2022/07/15 03:51:24;;;;;;;18.35;15.93;;;16.20;99.90;;;;;;5052253;28;20021;-73
2022/07/15 03:53:50;;;;;;;20.15;14.77;;;16.20;99.90;;;;;;5052269;27;20412;-72
2022/07/15 03:56:16;;;;;;;24.73;14.77;;;16.40;99.90;;;;;;5051874;28;20386;-72
2022/07/15 03:58:44;;;;;;;19.63;15.57;;;16.40;99.90;;;;;;5051084;28;20018;-72
2022/07/15 04:01:10;;;;;;;17.42;13.90;;;16.40;99.90;;;;;;5052012;28;20048;-76
2022/07/15 04:03:36;;;;;;;14.48;12.50;;;16.50;99.90;;;;;;5070553;27;20044;-76
2022/07/15 04:06:02;;;;;;;16.80;13.82;;;16.60;99.90;;;;;;5156939;27;20047;-71
2022/07/15 04:08:28;;;;;;;17.70;13.98;;;16.70;99.90;;;;;;5155921;27;20433;-76
2022/07/15 04:10:56;;;;;;;15.27;11.90;;;16.50;99.90;;;;;;5157067;27;20025;-77
2022/07/15 04:13:21;;;;;;;16.02;13.27;;;16.50;99.90;;;;;;5155771;27;20026;-72
2022/07/15 04:15:47;;;;;;;16.67;12.07;;;16.40;99.90;;;;;;5156770;27;20031;-77
2022/07/15 04:18:13;;;;;;;15.52;13.43;;;16.40;99.90;;;;;;5156834;27;20030;-77
2022/07/15 04:20:39;;;;;;;15.75;12.38;;;16.40;99.90;;;;;;5155606;27;20053;-76
2022/07/15 04:23:04;;;;;;;17.02;12.45;;;16.50;99.90;;;;;;5155401;27;20471;-73
2022/07/15 04:25:30;;;;;;;14.73;12.15;;;16.50;99.90;;;;;;5062714;27;20017;-76
2022/07/15 04:27:56;;;;;;;12.77;10.93;;;16.50;99.90;;;;;;5051528;28;20028;-77
2022/07/15 04:30:22;;;;;;;15.85;11.55;;;16.60;99.90;;;;;;5050332;28;20113;-72
2022/07/15 04:32:47;;;;;;;13.90;11.38;;;16.70;99.90;;;;;;5051332;28;20386;-76
2022/07/15 04:35:13;;;;;;;17.40;11.13;;;16.70;99.90;;;;;;5050220;28;20018;-76
2022/07/15 04:37:39;;;;;;;13.35;9.50;;;16.60;99.90;;;;;;5051480;28;20556;-71
2022/07/15 04:40:07;;;;;;;11.90;9.43;;;16.50;99.90;;;;;;5051516;28;20021;-72
2022/07/15 04:42:32;;;;;;;17.02;9.55;;;16.70;99.90;;;;;;5050111;28;20021;-71
2022/07/15 04:44:58;;;;;;;14.55;9.27;;;16.70;99.90;;;;;;5051453;28;20021;-76
2022/07/15 04:47:24;;;;;;;16.20;9.02;;;16.60;99.90;;;;;;5051332;28;20061;-77
2022/07/15 04:52:34;;;;;;;11.43;8.48;;;16.70;99.90;;;;;;5051321;28;20500;-71
2022/07/15 04:54:59;;;;;;;11.68;6.95;;;16.50;99.90;;;;;;5050116;28;20111;-72
2022/07/15 04:57:25;;;;;;;13.10;7.90;;;16.60;99.90;;;;;;5051075;28;20107;-72
2022/07/15 04:59:51;;;;;;;8.85;5.65;;;16.60;99.90;;;;;;5051192;28;20029;-76
2022/07/15 05:02:17;;;;;;;13.68;6.78;;;16.60;99.90;;;;;;5049875;28;20021;-77
2022/07/15 05:04:42;;;;;;;10.30;6.25;;;16.60;99.90;;;;;;5119660;27;20026;-72
2022/07/15 05:07:08;;;;;;;10.15;6.28;;;16.60;99.90;;;;;;5155708;27;20053;-76
2022/07/15 05:09:34;;;;;;;10.60;5.85;;;16.70;99.90;;;;;;5155771;27;20023;-76
2022/07/15 05:12:00;;;;;;;13.93;5.80;;;16.60;99.90;;;;;;5155589;27;20018;-76
2022/07/15 05:14:26;;;;;;;9.45;5.35;;;16.60;99.90;;;;;;5155775;27;20095;-77
2022/07/15 05:16:52;;;;;;;7.97;5.63;;;16.50;99.90;;;;;;5155342;27;20558;-71
2022/07/15 05:19:18;;;;;;;8.80;5.50;;;16.40;99.90;;;;;;5155607;27;20101;-73
2022/07/15 05:21:44;;;;;;;9.73;5.47;;;16.40;99.90;;;;;;5155419;27;20529;-76
2022/07/15 05:24:09;;;;;;;7.82;6.03;;;16.40;99.90;;;;;;5118239;27;20060;-72
2022/07/15 05:26:35;;;;;;;8.35;5.80;;;16.50;99.90;;;;;;5050752;28;20071;-76
2022/07/15 05:29:01;;;;;;;9.55;6.47;;;16.70;99.90;;;;;;5049575;28;20108;-72
2022/07/15 05:31:27;;;;;;;11.68;7.10;;;16.90;99.90;;;;;;5050487;28;20040;-76
2022/07/15 05:33:53;;;;;;;14.93;8.77;;;17.10;99.90;;;;;;5049207;28;20027;-76
2022/07/15 05:36:19;;;;;;;11.52;6.82;;;17.30;99.90;;;;;;5093954;27;20108;-71
2022/07/15 05:38:45;;;;;;;8.95;6.07;;;17.40;99.90;;;;;;5105323;27;20465;-72
2022/07/15 05:41:10;;;;;;;12.73;7.32;;;17.40;99.90;;;;;;5101540;27;20029;-76
2022/07/15 05:43:37;;;;;;;10.35;6.10;;;17.40;99.90;;;;;;5094960;27;20175;-72
2022/07/15 05:46:03;;;;;;;9.02;6.03;;;17.40;99.90;;;;;;5092037;27;20048;-72
2022/07/15 05:48:29;;;;;;;10.50;6.72;;;17.50;99.90;;;;;;5102088;27;20011;-72
2022/07/15 05:50:55;;;;;;;7.53;5.55;;;17.30;99.90;;;;;;5105217;27;20032;-76
2022/07/15 05:53:22;;;;;;;10.73;5.72;;;17.40;99.90;;;;;;5094455;27;20025;-76
2022/07/15 05:55:48;;;;;;;10.63;6.55;;;17.50;99.90;;;;;;5102894;27;20015;-76
2022/07/15 05:58:14;;;;;;;8.45;4.97;;;17.70;99.90;;;;;;5103489;27;20141;-72
2022/07/15 06:00:39;;;;;;;12.70;6.30;;;17.60;99.90;;;;;;5095870;27;20029;-76
2022/07/15 06:03:05;;;;;;;10.07;5.93;;;17.70;99.90;;;;;;5103312;27;20015;-76
2022/07/15 06:05:31;;;;;;;8.30;5.40;;;17.80;99.90;;;;;;5052674;27;20442;-76
2022/07/15 06:07:57;;;;;;;9.40;5.28;;;17.70;99.90;;;;;;5094706;27;20030;-76
2022/07/15 06:10:23;;;;;;;13.98;6.47;;;17.80;99.90;;;;;;5093463;27;20017;-76
2022/07/15 06:12:49;;;;;;;11.27;4.95;;;17.80;99.90;;;;;;5101767;27;20010;-76
2022/07/15 06:15:15;;;;;;;8.73;4.03;;;17.80;99.90;;;;;;5060338;27;20021;-76
2022/07/15 06:17:41;;;;;;;8.18;4.72;;;17.80;99.90;;;;;;5072780;27;20037;-76
2022/07/15 06:20:07;;;;;;;8.65;3.85;;;17.80;98.00;;;;;;5103040;27;20084;-72
2022/07/15 06:22:33;;;;;;;5.32;3.83;;;17.80;99.00;;;;;;5097895;27;20021;-71
2022/07/15 06:24:59;;;;;;;9.00;3.17;;;17.80;96.80;;;;;;5106079;27;20071;-71
2022/07/15 06:27:25;;;;;;;5.75;2.70;;;17.90;96.00;;;;;;5088580;27;20057;-71
2022/07/15 06:29:51;;;;;;;4.30;2.30;;;18.00;90.70;;;;;;5100265;27;20014;-72
2022/07/15 06:32:20;;;;;;;3.78;2.35;;;18.10;85.70;;;;;;5105154;27;20029;-71
2022/07/15 06:34:46;;;;;;;7.03;2.63;;;18.20;82.50;;;;;;5097351;27;20027;-72
2022/07/15 06:37:11;;;;;;;3.63;2.20;;;18.20;81.40;;;;;;5083338;27;20041;-71
2022/07/15 06:39:37;;;;;;;6.50;2.20;;;18.20;84.90;;;;;;5074941;27;20019;-71
2022/07/15 06:42:03;;;;;;;3.50;2.33;;;18.30;86.10;;;;;;5069683;27;20029;-72
2022/07/15 06:44:29;;;;;;;4.55;2.50;;;18.30;90.80;;;;;;5127856;27;20018;-72
2022/07/15 06:46:56;;;;;;;4.03;2.10;;;18.30;91.80;;;;;;5126458;27;20021;-72
2022/07/15 06:49:22;;;;;;;5.05;2.13;;;18.30;85.70;;;;;;5084890;27;20097;-72
2022/07/15 06:51:48;;;;;;;6.80;3.08;;;18.30;87.00;;;;;;5047982;28;20561;-72
2022/07/15 06:54:15;;;;;;;5.78;2.40;;;18.20;88.50;;;;;;5047898;28;20112;-71
2022/07/15 06:56:41;;;;;;;7.75;2.55;;;18.30;89.20;;;;;;5051782;28;20105;-71
2022/07/15 06:59:06;;;;;;;4.53;1.75;;;18.40;88.90;;;;;;5052018;28;20033;-71
2022/07/15 07:01:33;;;;;;;7.18;1.98;;;18.30;79.30;;;;;;5052861;28;20025;-71
2022/07/15 07:03:59;;;;;;;2.55;2.08;;;18.30;78.40;;;;;;5091233;27;20511;-71
2022/07/15 07:06:26;;;;;;;2.70;1.70;;;18.40;76.50;;;;;;5157470;27;20054;-72
2022/07/15 07:08:52;;;;;;;5.07;2.10;;;18.30;74.50;;;;;;5157969;27;20019;-72
2022/07/15 07:11:18;;;;;;;3.28;1.70;;;18.20;71.90;;;;;;5112519;27;20026;-71
2022/07/15 07:13:44;;;;;;;3.53;1.95;;;18.30;78.20;;;;;;5101246;27;20032;-72
2022/07/15 07:16:10;;;;;;;4.20;2.35;;;18.10;72.80;;;;;;5103493;27;20022;-72
2022/07/15 07:18:36;;;;;;;5.13;2.60;;;18.20;76.20;;;;;;5109650;27;20526;-72
2022/07/15 07:21:02;;;;;;;3.10;2.08;;;18.30;75.70;;;;;;5095254;27;20478;-71
2022/07/15 07:23:28;;;;;;;3.90;2.25;;;18.40;75.50;;;;;;5091424;27;20029;-72
2022/07/15 07:25:54;;;;;;;5.03;2.28;;;18.60;75.90;;;;;;5052526;28;20516;-75
2022/07/15 07:28:21;;;;;;;6.13;2.80;;;18.80;76.90;;;;;;5051167;28;20017;-71
2022/07/15 07:30:49;;;;;;;4.45;2.13;;;18.90;72.00;;;;;;5052612;28;20032;-71
2022/07/15 07:33:15;;;;;;;4.97;2.10;;;18.80;72.80;;;;;;5052474;28;20094;-71
2022/07/15 07:35:42;;;;;;;4.18;1.98;;;18.80;69.10;;;;;;5051034;28;20029;-71
2022/07/15 07:38:09;;;;;;;4.88;2.53;;;18.80;70.00;;;;;;5050910;28;20098;-72
2022/07/15 07:40:34;;;;;;;4.30;1.90;;;19.00;71.10;;;;;;5080937;27;20023;-70
2022/07/15 07:43:00;;;;;;;5.38;1.85;;;19.20;72.40;;;;;;5080462;27;20052;-75
2022/07/15 07:45:28;;;;;;;3.85;1.90;;;19.30;70.40;;;;;;5053105;27;20025;-75
2022/07/15 07:47:55;;;;;;;3.45;1.88;;;19.30;68.20;;;;;;5051121;28;20032;-75
2022/07/15 07:50:21;;;;;;;3.53;2.13;;;19.40;69.00;;;;;;5118563;27;20368;-76
2022/07/15 07:52:47;;;;;;;3.90;1.80;;;19.50;68.30;;;;;;5157597;27;20035;-75
2022/07/15 07:55:14;;;;;;;4.28;2.13;;;19.20;67.30;;;;;;5157401;27;20058;-70
2022/07/15 07:57:52;;;;;;;4.93;2.30;;;19.10;70.50;;;;;;5157318;27;20501;-71
2022/07/15 08:00:19;;;;;;;1.67;1.58;;;19.00;69.40;;;;;;5157259;27;20019;-75
2022/07/15 08:02:45;;;;;;;3.08;2.00;;;19.20;70.80;;;;;;5157364;27;20018;-71
2022/07/15 08:05:11;;;;;;;5.00;2.20;;;19.40;71.70;;;;;;5093205;27;20029;-71
2022/07/15 08:07:37;;;;;;;3.50;2.45;;;19.20;68.00;;;;;;5058077;27;20053;-70
2022/07/15 08:10:04;;;;;;;3.38;2.53;;;19.30;68.90;;;;;;5118759;27;20487;-71
2022/07/15 08:12:29;;;;;;;3.15;2.10;;;19.20;66.60;;;;;;5155836;27;20494;-71
2022/07/15 08:14:55;;;;;;;3.00;2.10;;;19.00;68.30;;;;;;5084378;27;20029;-71
2022/07/15 08:17:22;;;;;;;5.00;3.17;;;19.00;70.90;;;;;;5116861;27;20375;-76
2022/07/15 08:19:48;;;;;;;2.78;1.73;;;18.90;71.80;;;;;;5051914;27;20542;-71
2022/07/15 08:22:14;;;;;;;3.08;2.25;;;18.90;73.90;;;;;;5117207;27;20375;-70
2022/07/15 08:24:40;;;;;;;6.18;2.00;;;19.00;71.40;;;;;;5038626;27;20053;-74
2022/07/15 08:27:06;;;;;;;6.20;2.17;;;19.20;70.40;;;;;;5125052;27;20009;-71
2022/07/15 08:29:31;;;;;;;4.20;2.42;;;19.50;67.60;;;;;;5086588;27;20045;-72
2022/07/15 08:31:57;;;;;;;2.65;1.55;;;19.50;67.10;;;;;;5072150;27;20027;-70
2022/07/15 08:34:23;;;;;;;2.50;1.35;;;19.50;67.90;;;;;;5097359;27;20069;-70
2022/07/15 08:36:49;;;;;;;1.75;1.60;;;19.60;67.50;;;;;;5119294;27;20044;-71
2022/07/15 08:39:15;;;;;;;4.53;1.60;;;18.80;65.80;;;;;;5076790;27;20483;-70
2022/07/15 08:41:41;;;;;;;3.20;1.50;;;18.60;69.10;;;;;;5053926;27;20021;-71
2022/07/15 08:44:08;;;;;;;2.53;1.58;;;18.30;69.70;;;;;;5065446;27;20030;-70
2022/07/15 08:46:35;;;;;;;4.80;1.52;;;18.30;70.60;;;;;;5086571;27;20032;-70
2022/07/15 08:49:12;;;;;;;2.13;1.33;;;18.60;68.20;;;;;;5071317;27;20134;-70
2022/07/15 08:51:43;;;;;;;3.97;1.42;;;18.80;67.80;;;;;;5081566;27;20025;-70
2022/07/15 08:54:09;;;;;;;1.95;0.80;;;18.50;68.30;;;;;;5083246;27;20034;-71
2022/07/15 08:56:36;;;;;;;4.32;0.90;;;18.90;66.70;;;;;;5071750;27;20033;-70
2022/07/15 08:59:04;;;;;;;4.25;1.30;;;19.50;66.30;;;;;;5095411;27;20483;-70
2022/07/15 09:01:31;;;;;;;5.35;1.10;;;19.80;64.80;;;;;;5066579;27;20466;-71
2022/07/15 09:03:57;;;;;;;3.00;0.90;;;20.00;62.80;;;;;;5071332;27;20033;-70
2022/07/15 09:06:37;;;;;;;2.17;1.00;;;19.40;61.80;;;;;;5038192;28;20049;-70
2022/07/15 09:09:28;;;;;;;2.90;0.93;;;19.10;62.90;;;;;;5074189;27;20472;-75
2022/07/15 09:11:57;;;;;;;1.52;0.98;;;19.40;64.10;;;;;;5111028;27;20022;-76
2022/07/15 09:14:26;;;;;;;2.70;1.00;;;19.40;63.70;;;;;;5121504;27;20030;-74
2022/07/15 09:17:20;;;;;;;2.10;0.95;;;19.60;61.60;;;;;;5153520;27;20038;-75
2022/07/15 09:20:13;;;;;;;5.13;1.00;;;19.50;60.00;;;;;;5082281;27;20033;-72
2022/07/15 09:22:55;;;;;;;2.03;1.02;;;19.70;60.40;;;;;;5154805;27;20053;-73
2022/07/15 09:25:22;;;;;;;2.08;0.80;;;19.50;59.80;;;;;;5079950;27;20035;-75
2022/07/15 09:27:48;;;;;;;5.28;1.30;;;19.30;60.70;;;;;;5082683;27;20060;-72
2022/07/15 09:36:15;;;;;;;3.65;1.00;;;19.90;59.50;;;;;;5147350;27;20118;-72
2022/07/15 09:39:10;;;;;;;2.38;1.23;;;20.20;61.60;;;;;;5097656;27;20037;-75
2022/07/15 09:41:41;;;;;;;3.40;0.90;;;20.60;60.60;;;;;;5076990;27;20403;-73
2022/07/15 09:44:15;;;;;;;1.42;0.77;;;20.50;57.40;;;;;;5153807;27;20391;-75
2022/07/15 09:46:53;;;;;;;5.72;1.00;;;20.80;56.40;;;;;;5153619;27;20034;-75
2022/07/15 09:49:25;;;;;;;2.17;0.90;;;20.80;56.60;;;;;;5154035;27;20051;-73
2022/07/15 09:52:10;;;;;;;2.67;1.00;;;21.00;56.80;;;;;;5153819;27;20022;-72
2022/07/15 09:54:36;;;;;;;2.63;0.77;;;21.10;56.50;;;;;;5078873;27;20539;-72
2022/07/15 09:57:05;;;;;;;3.45;0.95;;;21.00;57.00;;;;;;5153484;27;20110;-72
2022/07/15 09:59:31;;;;;;;3.08;1.13;;;20.70;56.70;;;;;;5111052;27;20029;-71
2022/07/15 10:01:58;;;;;;;2.90;1.10;;;20.70;56.30;;;;;;5125950;27;20026;-72
2022/07/15 10:04:26;;;;;;;2.92;0.95;;;20.30;57.80;;;;;;5079504;27;20028;-72
2022/07/15 10:06:54;;;;;;;1.58;1.42;;;19.80;57.60;;;;;;5047460;28;20049;-75
2022/07/15 10:09:24;;;;;;;2.65;1.10;;;19.80;58.40;;;;;;5046081;28;20036;-75
2022/07/15 10:11:54;;;;;;;1.15;0.93;;;20.10;60.20;;;;;;5047930;28;20017;-73
2022/07/15 10:14:38;;;;;;;4.10;0.93;;;20.60;61.60;;;;;;5049572;28;20021;-73
2022/07/15 10:17:07;;;;;;;2.38;0.95;;;20.80;58.50;;;;;;5048826;28;20037;-73
2022/07/15 10:20:04;;;;;;;1.70;1.00;;;21.10;58.20;;;;;;5046474;28;20025;-75
2022/07/15 10:23:01;;;;;;;2.08;1.02;;;21.10;56.50;;;;;;5048500;28;20017;-75
2022/07/15 10:25:33;;;;;;;2.95;1.38;;;20.40;56.10;;;;;;5048473;28;20033;-73
2022/07/15 10:28:19;;;;;;;2.42;1.00;;;20.10;56.90;;;;;;5047860;28;20031;-74
2022/07/15 10:30:46;;;;;;;1.55;0.77;;;19.70;57.50;;;;;;5051890;28;20025;-75
2022/07/15 10:33:18;;;;;;;1.75;1.10;;;19.40;56.90;;;;;;5051021;28;20115;-75
2022/07/15 10:35:53;;;;;;;2.38;0.80;;;20.00;57.90;;;;;;5053125;28;20021;-73
2022/07/15 10:38:21;;;;;;;2.92;1.23;;;19.90;55.90;;;;;;5053303;28;20037;-75
2022/07/15 10:40:59;;;;;;;1.20;0.60;;;20.00;57.60;;;;;;5053504;28;20031;-73
2022/07/15 10:43:51;;;;;;;1.10;1.00;;;19.90;59.00;;;;;;5053603;28;20021;-73
2022/07/15 10:46:17;;;;;;;1.85;0.90;;;19.70;57.90;;;;;;5052032;28;20033;-73
2022/07/15 10:48:51;;;;;;;1.50;1.30;;;19.80;57.60;;;;;;5052307;28;20070;-73
2022/07/15 10:51:35;;;;;;;3.40;1.08;;;20.10;57.90;;;;;;5053666;28;20397;-73
2022/07/15 10:54:08;;;;;;;1.90;0.80;;;20.30;57.90;;;;;;5052169;28;20123;-75
2022/07/15 10:56:35;;;;;;;1.98;1.00;;;20.20;55.90;;;;;;5052011;28;20044;-74
2022/07/15 10:59:09;;;;;;;2.08;0.93;;;20.30;55.60;;;;;;5052260;28;20386;-75
2022/07/15 11:01:36;;;;;;;2.22;0.95;;;20.40;55.20;;;;;;5053188;28;20036;-73
2022/07/15 11:04:17;;;;;;;1.98;1.00;;;20.30;55.80;;;;;;5053297;28;20017;-73
2022/07/15 11:07:01;;;;;;;2.30;1.02;;;19.80;55.30;;;;;;5052956;28;20076;-75
2022/07/15 11:10:04;;;;;;;2.20;0.95;;;19.50;55.50;;;;;;5053247;28;20103;-75
2022/07/15 11:12:32;;;;;;;1.13;1.00;;;19.80;56.20;;;;;;5053188;28;20028;-73
2022/07/15 11:14:58;;;;;;;1.23;0.90;;;20.00;54.40;;;;;;5053310;28;20104;-75
2022/07/15 11:17:29;;;;;;;2.72;1.58;;;20.40;54.70;;;;;;5052828;28;20116;-73
2022/07/15 11:20:13;;;;;;;2.15;1.00;;;20.70;52.30;;;;;;5053145;28;20029;-74
2022/07/15 11:22:44;;;;;;;1.92;0.90;;;21.20;53.30;;;;;;5053007;28;20021;-73
2022/07/15 11:25:38;;;;;;;3.23;1.40;;;21.50;55.20;;;;;;5053199;28;20359;-73
2022/07/15 11:28:07;;;;;;;1.88;1.40;;;21.50;52.80;;;;;;5052863;28;20021;-73
2022/07/15 11:30:38;;;;;;;2.00;0.80;;;21.70;53.40;;;;;;5052906;28;20478;-75
2022/07/15 11:33:08;;;;;;;2.15;1.25;;;21.70;52.50;;;;;;5051464;28;20037;-73
2022/07/15 11:36:03;;;;;;;1.95;0.90;;;21.40;51.80;;;;;;5052707;28;20098;-75
2022/07/15 11:38:31;;;;;;;2.65;1.00;;;21.40;53.10;;;;;;5039993;28;20048;-74
2022/07/15 11:46:44;;;;;;;1.98;1.08;;;20.60;55.00;;;;;;5052572;28;20056;-73
2022/07/15 11:49:10;;;;;;;4.85;1.63;;;20.70;53.50;;;;;;5052467;28;20052;-73
2022/07/15 11:51:36;;;;;;;3.53;0.80;;;20.60;53.20;;;;;;5052540;28;20029;-75
2022/07/15 11:54:02;;;;;;;3.35;1.00;;;20.50;53.90;;;;;;5052566;28;20108;-73
2022/07/15 11:56:28;;;;;;;3.15;0.77;;;20.50;53.50;;;;;;5052398;28;20056;-73
2022/07/15 11:58:56;;;;;;;4.55;1.20;;;20.40;52.90;;;;;;5052093;28;20052;-75
2022/07/15 12:01:28;;;;;;;4.07;1.10;;;20.50;54.00;;;;;;5052345;28;20367;-75
2022/07/15 12:03:55;;;;;;;4.45;1.35;;;20.50;53.20;;;;;;5052347;28;20028;-73
2022/07/15 12:06:32;;;;;;;4.38;0.95;;;20.90;54.70;;;;;;5049662;28;20109;-75
2022/07/15 12:09:00;;;;;;;1.40;0.63;;;21.30;51.60;;;;;;5031140;28;20037;-76
2022/07/15 12:11:27;;;;;;;1.48;0.90;;;21.10;50.10;;;;;;5031219;28;20021;-74
2022/07/15 12:13:57;;;;;;;2.78;1.48;;;21.40;51.00;;;;;;5031301;28;20108;-73
2022/07/15 12:16:55;;;;;;;3.03;0.90;;;21.20;50.60;;;;;;5031196;28;20425;-73
2022/07/15 12:19:29;;;;;;;2.28;0.90;;;21.00;50.50;;;;;;5019163;28;20042;-74
2022/07/15 12:21:57;;;;;;;1.65;0.90;;;20.80;51.50;;;;;;5049902;28;20063;-73
2022/07/15 12:24:46;;;;;;;3.55;0.90;;;20.30;51.00;;;;;;5051848;28;20363;-75
2022/07/15 12:27:13;;;;;;;2.20;0.90;;;20.00;51.10;;;;;;5052002;28;20100;-73
2022/07/15 12:29:40;;;;;;;1.88;1.00;;;20.10;50.50;;;;;;5050625;28;20025;-73
2022/07/15 12:32:11;;;;;;;1.23;0.73;;;20.40;50.70;;;;;;5051964;28;20386;-73
2022/07/15 12:34:46;;;;;;;0.68;0.60;;;20.30;50.20;;;;;;5051908;28;20029;-73
2022/07/15 12:37:16;;;;;;;1.35;0.98;;;20.20;50.10;;;;;;5050364;28;20039;-73
2022/07/15 12:39:56;;;;;;;3.08;1.00;;;20.10;50.20;;;;;;5050802;28;20108;-75
2022/07/15 12:42:22;;;;;;;2.42;0.60;;;20.10;50.40;;;;;;5051606;28;20138;-73
2022/07/15 12:45:25;;;;;;;1.23;0.60;;;20.00;51.20;;;;;;5051187;28;20029;-75
2022/07/15 12:48:04;;;;;;;;;;;19.90;50.50;;;;;;5051732;28;20041;-73
2022/07/15 12:50:34;;;;;;;2.95;0.95;;;20.20;50.00;;;;;;5051472;28;19973;-76
2022/07/15 12:53:00;;;;;;;4.22;1.27;;;20.40;50.10;;;;;;5051368;28;20120;-72
2022/07/15 12:56:01;;;;;;;2.63;0.80;;;20.50;49.90;;;;;;5050911;28;20032;-73
2022/07/15 12:58:30;;;;;;;1.05;0.90;;;20.70;50.60;;;;;;5048691;28;20047;-73
2022/07/15 13:01:11;;;;;;;2.83;0.80;;;20.30;49.30;;;;;;5118837;27;20496;-73